sensor_id;sensor_type;location;lat;lon;timestamp;temperature;humidity
42365;DHT22;28498;54.400;18.566;2023-03-24T00:01:07;7.30;99.90
42365;DHT22;28498;54.400;18.566;2023-03-24T00:03:34;7.30;99.90
42365;DHT22;28498;54.400;18.566;2023-03-24T00:06:03;7.40;99.90
42365;DHT22;28498;54.400;18.566;2023-03-24T00:08:34;7.30;99.90
42365;DHT22;28498;54.400;18.566;2023-03-24T00:11:06;7.30;99.90
42365;DHT22;28498;54.400;18.566;2023-03-24T00:13:34;7.20;99.90
42365;DHT22;28498;54.400;18.566;2023-03-24T00:16:06;7.30;99.90
42365;DHT22;28498;54.400;18.566;2023-03-24T00:18:35;7.20;99.90
42365;DHT22;28498;54.400;18.566;2023-03-24T00:21:04;7.00;99.90
42365;DHT22;28498;54.400;18.566;2023-03-24T00:23:31;6.90;99.90
42365;DHT22;28498;54.400;18.566;2023-03-24T00:26:18;6.80;99.90
42365;DHT22;28498;54.400;18.566;2023-03-24T00:28:47;6.80;99.90
42365;DHT22;28498;54.400;18.566;2023-03-24T00:31:16;6.70;99.90
42365;DHT22;28498;54.400;18.566;2023-03-24T00:33:45;6.70;99.90
42365;DHT22;28498;54.400;18.566;2023-03-24T00:36:21;6.70;99.90
42365;DHT22;28498;54.400;18.566;2023-03-24T00:38:49;6.60;99.90
42365;DHT22;28498;54.400;18.566;2023-03-24T00:41:16;6.50;99.90
42365;DHT22;28498;54.400;18.566;2023-03-24T00:43:43;6.40;99.90
42365;DHT22;28498;54.400;18.566;2023-03-24T00:46:11;6.30;99.90
42365;DHT22;28498;54.400;18.566;2023-03-24T00:48:39;6.20;99.90
42365;DHT22;28498;54.400;18.566;2023-03-24T00:51:07;6.20;99.90
42365;DHT22;28498;54.400;18.566;2023-03-24T00:53:36;6.20;99.90
42365;DHT22;28498;54.400;18.566;2023-03-24T00:56:09;6.10;99.90
42365;DHT22;28498;54.400;18.566;2023-03-24T00:58:41;6.10;99.90
42365;DHT22;28498;54.400;18.566;2023-03-24T01:01:08;6.10;99.90
42365;DHT22;28498;54.400;18.566;2023-03-24T01:03:35;6.00;99.90
42365;DHT22;28498;54.400;18.566;2023-03-24T01:06:14;6.00;99.90
42365;DHT22;28498;54.400;18.566;2023-03-24T01:08:41;6.00;99.90
42365;DHT22;28498;54.400;18.566;2023-03-24T01:11:08;5.90;99.90
42365;DHT22;28498;54.400;18.566;2023-03-24T01:13:36;5.80;99.90
42365;DHT22;28498;54.400;18.566;2023-03-24T01:16:03;5.80;99.90
42365;DHT22;28498;54.400;18.566;2023-03-24T01:18:30;5.70;99.90
42365;DHT22;28498;54.400;18.566;2023-03-24T01:20:57;5.60;99.90
42365;DHT22;28498;54.400;18.566;2023-03-24T01:23:24;5.60;99.90
42365;DHT22;28498;54.400;18.566;2023-03-24T01:25:52;5.40;99.90
42365;DHT22;28498;54.400;18.566;2023-03-24T01:28:22;5.30;99.90
42365;DHT22;28498;54.400;18.566;2023-03-24T01:30:51;5.30;99.90
42365;DHT22;28498;54.400;18.566;2023-03-24T01:33:19;5.20;99.90
42365;DHT22;28498;54.400;18.566;2023-03-24T01:35:46;5.20;99.90
42365;DHT22;28498;54.400;18.566;2023-03-24T01:38:14;5.30;99.90
42365;DHT22;28498;54.400;18.566;2023-03-24T01:40:43;5.30;99.90
42365;DHT22;28498;54.400;18.566;2023-03-24T01:43:21;5.40;99.90
42365;DHT22;28498;54.400;18.566;2023-03-24T01:45:57;5.40;99.90
42365;DHT22;28498;54.400;18.566;2023-03-24T01:51:32;5.40;99.90
42365;DHT22;28498;54.400;18.566;2023-03-24T01:59:36;5.60;99.90
42365;DHT22;28498;54.400;18.566;2023-03-24T02:02:04;5.60;99.90
42365;DHT22;28498;54.400;18.566;2023-03-24T02:04:38;5.60;99.90
42365;DHT22;28498;54.400;18.566;2023-03-24T02:07:19;5.70;99.90
42365;DHT22;28498;54.400;18.566;2023-03-24T02:09:48;5.70;99.90
42365;DHT22;28498;54.400;18.566;2023-03-24T02:12:15;5.70;99.90
42365;DHT22;28498;54.400;18.566;2023-03-24T02:14:43;5.70;99.90
42365;DHT22;28498;54.400;18.566;2023-03-24T02:20:31;5.80;99.90
42365;DHT22;28498;54.400;18.566;2023-03-24T02:31:49;6.30;99.90
42365;DHT22;28498;54.400;18.566;2023-03-24T02:39:57;6.30;99.90
42365;DHT22;28498;54.400;18.566;2023-03-24T02:45:47;6.30;99.90
42365;DHT22;28498;54.400;18.566;2023-03-24T02:48:35;6.30;99.90
42365;DHT22;28498;54.400;18.566;2023-03-24T02:56:53;6.30;99.90
42365;DHT22;28498;54.400;18.566;2023-03-24T03:02:13;6.20;99.90
42365;DHT22;28498;54.400;18.566;2023-03-24T03:04:46;6.20;99.90
42365;DHT22;28498;54.400;18.566;2023-03-24T03:07:20;6.30;99.90
42365;DHT22;28498;54.400;18.566;2023-03-24T03:10:12;6.30;99.90
42365;DHT22;28498;54.400;18.566;2023-03-24T03:12:41;6.50;99.90
42365;DHT22;28498;54.400;18.566;2023-03-24T03:15:23;6.50;99.90
42365;DHT22;28498;54.400;18.566;2023-03-24T03:18:04;6.50;99.90
42365;DHT22;28498;54.400;18.566;2023-03-24T03:20:38;6.50;99.90
42365;DHT22;28498;54.400;18.566;2023-03-24T03:23:13;6.50;99.90
42365;DHT22;28498;54.400;18.566;2023-03-24T03:25:48;6.60;99.90
42365;DHT22;28498;54.400;18.566;2023-03-24T03:28:20;6.60;99.90
42365;DHT22;28498;54.400;18.566;2023-03-24T03:30:52;6.60;99.90
42365;DHT22;28498;54.400;18.566;2023-03-24T03:33:26;6.70;99.90
42365;DHT22;28498;54.400;18.566;2023-03-24T03:38:54;6.80;99.90
42365;DHT22;28498;54.400;18.566;2023-03-24T03:41:23;6.80;99.90
42365;DHT22;28498;54.400;18.566;2023-03-24T03:43:51;6.80;99.90
42365;DHT22;28498;54.400;18.566;2023-03-24T03:46:18;6.90;99.90
42365;DHT22;28498;54.400;18.566;2023-03-24T03:48:45;6.90;99.90
42365;DHT22;28498;54.400;18.566;2023-03-24T03:51:13;6.90;99.90
42365;DHT22;28498;54.400;18.566;2023-03-24T03:53:57;7.00;99.90
42365;DHT22;28498;54.400;18.566;2023-03-24T03:56:27;7.00;99.90
42365;DHT22;28498;54.400;18.566;2023-03-24T03:58:54;7.00;99.90
42365;DHT22;28498;54.400;18.566;2023-03-24T04:01:24;7.00;99.90
42365;DHT22;28498;54.400;18.566;2023-03-24T04:04:35;7.10;99.90
42365;DHT22;28498;54.400;18.566;2023-03-24T04:18:56;7.10;99.90
42365;DHT22;28498;54.400;18.566;2023-03-24T04:21:06;7.10;99.90
42365;DHT22;28498;54.400;18.566;2023-03-24T04:23:53;7.10;99.90
42365;DHT22;28498;54.400;18.566;2023-03-24T04:26:52;7.10;99.90
42365;DHT22;28498;54.400;18.566;2023-03-24T04:29:35;7.20;99.90
42365;DHT22;28498;54.400;18.566;2023-03-24T04:32:10;7.20;99.90
42365;DHT22;28498;54.400;18.566;2023-03-24T04:34:41;7.30;99.90
42365;DHT22;28498;54.400;18.566;2023-03-24T04:37:17;7.30;99.90
42365;DHT22;28498;54.400;18.566;2023-03-24T04:39:46;7.30;99.90
42365;DHT22;28498;54.400;18.566;2023-03-24T04:42:23;7.20;99.90
42365;DHT22;28498;54.400;18.566;2023-03-24T04:44:52;7.20;99.90
42365;DHT22;28498;54.400;18.566;2023-03-24T04:47:20;7.20;99.90
42365;DHT22;28498;54.400;18.566;2023-03-24T04:49:49;7.20;99.90
42365;DHT22;28498;54.400;18.566;2023-03-24T04:52:16;7.30;99.90
42365;DHT22;28498;54.400;18.566;2023-03-24T04:54:43;7.40;99.90
42365;DHT22;28498;54.400;18.566;2023-03-24T04:57:11;7.30;99.90
42365;DHT22;28498;54.400;18.566;2023-03-24T04:59:38;7.40;99.90
42365;DHT22;28498;54.400;18.566;2023-03-24T05:02:06;7.40;99.90
42365;DHT22;28498;54.400;18.566;2023-03-24T05:04:33;7.50;99.90
42365;DHT22;28498;54.400;18.566;2023-03-24T05:07:03;7.50;99.90
42365;DHT22;28498;54.400;18.566;2023-03-24T05:09:31;7.50;99.90
42365;DHT22;28498;54.400;18.566;2023-03-24T05:11:58;7.50;99.90
42365;DHT22;28498;54.400;18.566;2023-03-24T05:14:27;7.50;99.90
42365;DHT22;28498;54.400;18.566;2023-03-24T05:16:54;7.60;99.90
42365;DHT22;28498;54.400;18.566;2023-03-24T05:19:21;7.60;99.90
42365;DHT22;28498;54.400;18.566;2023-03-24T05:21:48;7.70;99.90
42365;DHT22;28498;54.400;18.566;2023-03-24T05:24:15;7.80;99.90
42365;DHT22;28498;54.400;18.566;2023-03-24T05:26:42;7.90;99.90
42365;DHT22;28498;54.400;18.566;2023-03-24T05:29:09;7.90;99.90
42365;DHT22;28498;54.400;18.566;2023-03-24T05:31:36;7.90;99.90
42365;DHT22;28498;54.400;18.566;2023-03-24T05:34:06;7.90;99.90
42365;DHT22;28498;54.400;18.566;2023-03-24T05:36:36;7.90;99.90
42365;DHT22;28498;54.400;18.566;2023-03-24T05:39:04;8.00;99.90
42365;DHT22;28498;54.400;18.566;2023-03-24T05:41:31;8.00;99.90
42365;DHT22;28498;54.400;18.566;2023-03-24T05:43:57;8.10;99.90
42365;DHT22;28498;54.400;18.566;2023-03-24T05:46:24;8.10;99.90
42365;DHT22;28498;54.400;18.566;2023-03-24T05:48:52;8.10;99.90
42365;DHT22;28498;54.400;18.566;2023-03-24T05:51:19;8.20;99.90
42365;DHT22;28498;54.400;18.566;2023-03-24T05:53:46;8.20;99.90
42365;DHT22;28498;54.400;18.566;2023-03-24T05:56:13;8.30;99.90
42365;DHT22;28498;54.400;18.566;2023-03-24T05:58:40;8.40;99.90
42365;DHT22;28498;54.400;18.566;2023-03-24T06:01:11;8.40;99.90
42365;DHT22;28498;54.400;18.566;2023-03-24T06:03:38;8.40;99.90
42365;DHT22;28498;54.400;18.566;2023-03-24T06:06:07;8.40;99.90
42365;DHT22;28498;54.400;18.566;2023-03-24T06:08:35;8.50;99.90
42365;DHT22;28498;54.400;18.566;2023-03-24T06:11:02;8.50;99.90
42365;DHT22;28498;54.400;18.566;2023-03-24T06:13:30;8.50;99.90
42365;DHT22;28498;54.400;18.566;2023-03-24T06:15:58;8.50;99.90
42365;DHT22;28498;54.400;18.566;2023-03-24T06:18:29;8.50;99.90
42365;DHT22;28498;54.400;18.566;2023-03-24T06:20:59;8.50;99.90
42365;DHT22;28498;54.400;18.566;2023-03-24T06:23:27;8.50;99.90
42365;DHT22;28498;54.400;18.566;2023-03-24T06:25:56;8.50;99.90
42365;DHT22;28498;54.400;18.566;2023-03-24T06:28:29;8.50;99.90
42365;DHT22;28498;54.400;18.566;2023-03-24T06:31:00;8.50;99.90
42365;DHT22;28498;54.400;18.566;2023-03-24T06:33:27;8.50;99.90
42365;DHT22;28498;54.400;18.566;2023-03-24T06:35:54;8.50;99.90
42365;DHT22;28498;54.400;18.566;2023-03-24T06:38:21;8.60;99.90
42365;DHT22;28498;54.400;18.566;2023-03-24T06:40:47;8.60;99.90
42365;DHT22;28498;54.400;18.566;2023-03-24T06:43:14;8.60;99.90
42365;DHT22;28498;54.400;18.566;2023-03-24T06:45:44;8.70;99.90
42365;DHT22;28498;54.400;18.566;2023-03-24T06:48:11;8.80;99.90
42365;DHT22;28498;54.400;18.566;2023-03-24T06:50:38;8.90;99.90
42365;DHT22;28498;54.400;18.566;2023-03-24T06:53:06;8.90;99.90
42365;DHT22;28498;54.400;18.566;2023-03-24T06:55:33;9.10;99.90
42365;DHT22;28498;54.400;18.566;2023-03-24T06:58:01;9.20;99.90
42365;DHT22;28498;54.400;18.566;2023-03-24T07:00:28;9.30;99.90
42365;DHT22;28498;54.400;18.566;2023-03-24T07:02:55;9.30;99.90
42365;DHT22;28498;54.400;18.566;2023-03-24T07:05:22;9.40;99.90
42365;DHT22;28498;54.400;18.566;2023-03-24T07:07:49;9.50;99.90
42365;DHT22;28498;54.400;18.566;2023-03-24T07:10:19;9.60;99.90
42365;DHT22;28498;54.400;18.566;2023-03-24T07:12:47;9.50;99.90
42365;DHT22;28498;54.400;18.566;2023-03-24T07:15:14;9.50;99.90
42365;DHT22;28498;54.400;18.566;2023-03-24T07:17:41;9.60;99.90
42365;DHT22;28498;54.400;18.566;2023-03-24T07:20:09;9.80;99.90
42365;DHT22;28498;54.400;18.566;2023-03-24T07:22:36;10.00;99.90
42365;DHT22;28498;54.400;18.566;2023-03-24T07:25:04;10.00;99.90
42365;DHT22;28498;54.400;18.566;2023-03-24T07:27:31;10.20;99.90
42365;DHT22;28498;54.400;18.566;2023-03-24T07:30:01;10.40;99.90
42365;DHT22;28498;54.400;18.566;2023-03-24T07:32:29;10.50;99.90
42365;DHT22;28498;54.400;18.566;2023-03-24T07:34:56;10.60;99.90
42365;DHT22;28498;54.400;18.566;2023-03-24T07:37:23;10.70;99.90
42365;DHT22;28498;54.400;18.566;2023-03-24T07:39:50;10.90;99.90
42365;DHT22;28498;54.400;18.566;2023-03-24T07:42:17;10.90;99.90
42365;DHT22;28498;54.400;18.566;2023-03-24T07:44:44;11.00;99.90
42365;DHT22;28498;54.400;18.566;2023-03-24T07:47:12;11.20;99.90
42365;DHT22;28498;54.400;18.566;2023-03-24T07:49:38;11.30;99.90
42365;DHT22;28498;54.400;18.566;2023-03-24T07:52:06;11.30;99.90
42365;DHT22;28498;54.400;18.566;2023-03-24T07:54:33;11.40;99.90
42365;DHT22;28498;54.400;18.566;2023-03-24T07:57:00;11.50;99.90
42365;DHT22;28498;54.400;18.566;2023-03-24T07:59:28;11.60;99.90
42365;DHT22;28498;54.400;18.566;2023-03-24T08:01:55;11.60;99.90
42365;DHT22;28498;54.400;18.566;2023-03-24T08:04:25;11.70;99.90
42365;DHT22;28498;54.400;18.566;2023-03-24T08:06:55;11.80;99.90
42365;DHT22;28498;54.400;18.566;2023-03-24T08:09:24;11.90;99.90
42365;DHT22;28498;54.400;18.566;2023-03-24T08:11:51;11.90;99.90
42365;DHT22;28498;54.400;18.566;2023-03-24T08:14:18;12.00;99.90
42365;DHT22;28498;54.400;18.566;2023-03-24T08:20:32;12.00;99.90
42365;DHT22;28498;54.400;18.566;2023-03-24T08:22:59;11.90;99.90
42365;DHT22;28498;54.400;18.566;2023-03-24T08:29:13;11.90;99.90
42365;DHT22;28498;54.400;18.566;2023-03-24T08:31:40;11.60;99.90
42365;DHT22;28498;54.400;18.566;2023-03-24T08:34:08;11.40;99.90
42365;DHT22;28498;54.400;18.566;2023-03-24T08:36:37;11.20;99.90
42365;DHT22;28498;54.400;18.566;2023-03-24T08:39:04;11.10;99.90
42365;DHT22;28498;54.400;18.566;2023-03-24T08:41:35;11.20;99.90
42365;DHT22;28498;54.400;18.566;2023-03-24T08:44:03;11.10;99.90
42365;DHT22;28498;54.400;18.566;2023-03-24T08:46:33;11.30;99.90
42365;DHT22;28498;54.400;18.566;2023-03-24T08:49:00;11.20;99.90
42365;DHT22;28498;54.400;18.566;2023-03-24T08:51:28;11.40;99.90
42365;DHT22;28498;54.400;18.566;2023-03-24T08:53:55;11.60;99.90
42365;DHT22;28498;54.400;18.566;2023-03-24T08:56:22;11.60;99.90
42365;DHT22;28498;54.400;18.566;2023-03-24T08:58:49;11.40;99.90
42365;DHT22;28498;54.400;18.566;2023-03-24T09:01:20;11.50;99.90
42365;DHT22;28498;54.400;18.566;2023-03-24T09:03:48;11.60;99.90
42365;DHT22;28498;54.400;18.566;2023-03-24T09:06:16;11.50;99.90
42365;DHT22;28498;54.400;18.566;2023-03-24T09:08:43;11.40;99.90
42365;DHT22;28498;54.400;18.566;2023-03-24T09:11:14;11.20;99.90
42365;DHT22;28498;54.400;18.566;2023-03-24T09:13:42;11.10;99.90
42365;DHT22;28498;54.400;18.566;2023-03-24T09:16:09;11.20;99.90
42365;DHT22;28498;54.400;18.566;2023-03-24T09:18:36;11.10;99.90
42365;DHT22;28498;54.400;18.566;2023-03-24T09:21:04;11.00;99.90
42365;DHT22;28498;54.400;18.566;2023-03-24T09:23:32;11.00;99.90
42365;DHT22;28498;54.400;18.566;2023-03-24T09:26:00;11.20;99.90
42365;DHT22;28498;54.400;18.566;2023-03-24T09:28:27;11.30;99.90
42365;DHT22;28498;54.400;18.566;2023-03-24T09:30:58;11.60;99.90
42365;DHT22;28498;54.400;18.566;2023-03-24T09:33:25;11.60;99.90
42365;DHT22;28498;54.400;18.566;2023-03-24T09:35:57;11.70;99.90
42365;DHT22;28498;54.400;18.566;2023-03-24T09:38:26;11.80;99.90
42365;DHT22;28498;54.400;18.566;2023-03-24T09:40:57;12.00;99.90
42365;DHT22;28498;54.400;18.566;2023-03-24T09:45:57;12.30;99.90
42365;DHT22;28498;54.400;18.566;2023-03-24T09:54:08;12.80;99.90
42365;DHT22;28498;54.400;18.566;2023-03-24T09:56:38;12.70;99.90
42365;DHT22;28498;54.400;18.566;2023-03-24T09:59:19;12.90;99.90
42365;DHT22;28498;54.400;18.566;2023-03-24T10:01:47;13.10;99.90
42365;DHT22;28498;54.400;18.566;2023-03-24T10:04:18;13.20;99.90
42365;DHT22;28498;54.400;18.566;2023-03-24T10:06:47;13.20;99.90
42365;DHT22;28498;54.400;18.566;2023-03-24T10:09:30;13.50;99.90
42365;DHT22;28498;54.400;18.566;2023-03-24T10:15:04;14.20;99.90
42365;DHT22;28498;54.400;18.566;2023-03-24T10:21:18;14.70;99.90
42365;DHT22;28498;54.400;18.566;2023-03-24T10:29:59;14.70;99.90
42365;DHT22;28498;54.400;18.566;2023-03-24T10:32:28;14.40;99.90
42365;DHT22;28498;54.400;18.566;2023-03-24T10:35:00;14.50;99.90
42365;DHT22;28498;54.400;18.566;2023-03-24T10:37:35;14.20;99.90
42365;DHT22;28498;54.400;18.566;2023-03-24T10:40:12;14.40;99.90
42365;DHT22;28498;54.400;18.566;2023-03-24T10:42:42;14.40;99.90
42365;DHT22;28498;54.400;18.566;2023-03-24T10:45:23;14.50;99.90
42365;DHT22;28498;54.400;18.566;2023-03-24T10:47:53;14.60;99.90
42365;DHT22;28498;54.400;18.566;2023-03-24T10:50:25;15.00;99.90
42365;DHT22;28498;54.400;18.566;2023-03-24T10:52:52;15.10;99.90
42365;DHT22;28498;54.400;18.566;2023-03-24T10:55:23;15.30;99.90
42365;DHT22;28498;54.400;18.566;2023-03-24T10:57:57;15.20;99.90
42365;DHT22;28498;54.400;18.566;2023-03-24T11:00:29;14.90;99.90
42365;DHT22;28498;54.400;18.566;2023-03-24T11:03:11;14.70;99.90
42365;DHT22;28498;54.400;18.566;2023-03-24T11:05:40;15.10;99.90
42365;DHT22;28498;54.400;18.566;2023-03-24T11:10:57;15.70;99.90
42365;DHT22;28498;54.400;18.566;2023-03-24T11:13:28;15.40;99.90
42365;DHT22;28498;54.400;18.566;2023-03-24T11:16:12;15.20;99.90
42365;DHT22;28498;54.400;18.566;2023-03-24T11:19:16;15.30;99.90
42365;DHT22;28498;54.400;18.566;2023-03-24T11:21:37;15.50;99.90
42365;DHT22;28498;54.400;18.566;2023-03-24T11:24:11;15.60;99.90
42365;DHT22;28498;54.400;18.566;2023-03-24T11:26:44;15.50;99.90
42365;DHT22;28498;54.400;18.566;2023-03-24T11:29:17;15.40;99.90
42365;DHT22;28498;54.400;18.566;2023-03-24T11:31:59;15.30;99.90
42365;DHT22;28498;54.400;18.566;2023-03-24T11:34:33;15.70;99.90
42365;DHT22;28498;54.400;18.566;2023-03-24T11:37:12;15.60;99.90
42365;DHT22;28498;54.400;18.566;2023-03-24T11:39:40;15.80;99.90
42365;DHT22;28498;54.400;18.566;2023-03-24T11:49:36;15.80;99.90
42365;DHT22;28498;54.400;18.566;2023-03-24T11:52:18;15.80;99.90
42365;DHT22;28498;54.400;18.566;2023-03-24T11:54:46;15.70;99.90
42365;DHT22;28498;54.400;18.566;2023-03-24T11:57:20;15.70;99.90
42365;DHT22;28498;54.400;18.566;2023-03-24T12:00:26;15.70;99.90
42365;DHT22;28498;54.400;18.566;2023-03-24T12:05:41;16.00;99.90
42365;DHT22;28498;54.400;18.566;2023-03-24T12:17:34;16.20;99.90
42365;DHT22;28498;54.400;18.566;2023-03-24T12:25:30;15.40;99.90
42365;DHT22;28498;54.400;18.566;2023-03-24T12:28:28;15.20;99.90
42365;DHT22;28498;54.400;18.566;2023-03-24T12:31:08;15.10;99.90
42365;DHT22;28498;54.400;18.566;2023-03-24T12:39:07;14.90;99.90
42365;DHT22;28498;54.400;18.566;2023-03-24T12:53:15;14.90;99.90
42365;DHT22;28498;54.400;18.566;2023-03-24T12:56:03;14.80;99.90
42365;DHT22;28498;54.400;18.566;2023-03-24T12:58:44;14.70;99.90
42365;DHT22;28498;54.400;18.566;2023-03-24T13:06:59;14.60;99.90
42365;DHT22;28498;54.400;18.566;2023-03-24T13:09:42;14.70;99.90
42365;DHT22;28498;54.400;18.566;2023-03-24T13:12:16;14.70;99.90
42365;DHT22;28498;54.400;18.566;2023-03-24T13:14:48;14.60;99.90
42365;DHT22;28498;54.400;18.566;2023-03-24T13:17:23;14.60;99.90
42365;DHT22;28498;54.400;18.566;2023-03-24T13:19:53;14.80;99.90
42365;DHT22;28498;54.400;18.566;2023-03-24T13:22:22;14.50;99.90
42365;DHT22;28498;54.400;18.566;2023-03-24T13:24:50;14.50;99.90
42365;DHT22;28498;54.400;18.566;2023-03-24T13:27:22;14.50;99.90
42365;DHT22;28498;54.400;18.566;2023-03-24T13:32:51;14.20;99.90
42365;DHT22;28498;54.400;18.566;2023-03-24T13:38:38;14.00;99.90
42365;DHT22;28498;54.400;18.566;2023-03-24T13:41:12;14.00;99.90
42365;DHT22;28498;54.400;18.566;2023-03-24T13:43:56;14.10;99.90
42365;DHT22;28498;54.400;18.566;2023-03-24T13:46:24;14.20;99.90
42365;DHT22;28498;54.400;18.566;2023-03-24T13:48:54;14.10;99.90
42365;DHT22;28498;54.400;18.566;2023-03-24T13:56:48;13.80;99.90
42365;DHT22;28498;54.400;18.566;2023-03-24T13:59:31;13.90;99.90
42365;DHT22;28498;54.400;18.566;2023-03-24T14:05:04;14.20;99.90
42365;DHT22;28498;54.400;18.566;2023-03-24T14:07:43;14.20;99.90
42365;DHT22;28498;54.400;18.566;2023-03-24T14:15:29;14.40;99.90
42365;DHT22;28498;54.400;18.566;2023-03-24T14:21:00;14.30;99.90
42365;DHT22;28498;54.400;18.566;2023-03-24T14:25:58;14.10;99.90
42365;DHT22;28498;54.400;18.566;2023-03-24T14:33:58;14.00;99.90
42365;DHT22;28498;54.400;18.566;2023-03-24T14:36:43;14.00;99.90
42365;DHT22;28498;54.400;18.566;2023-03-24T14:39:37;13.80;99.90
42365;DHT22;28498;54.400;18.566;2023-03-24T14:45:04;13.80;99.90
42365;DHT22;28498;54.400;18.566;2023-03-24T14:47:39;13.70;99.90
42365;DHT22;28498;54.400;18.566;2023-03-24T14:50:17;13.80;99.90
42365;DHT22;28498;54.400;18.566;2023-03-24T14:56:32;13.80;99.90
42365;DHT22;28498;54.400;18.566;2023-03-24T14:59:02;14.00;99.90
42365;DHT22;28498;54.400;18.566;2023-03-24T15:01:32;14.20;99.90
42365;DHT22;28498;54.400;18.566;2023-03-24T15:04:05;14.20;99.90
42365;DHT22;28498;54.400;18.566;2023-03-24T15:06:41;14.40;99.90
42365;DHT22;28498;54.400;18.566;2023-03-24T15:09:10;14.50;99.90
42365;DHT22;28498;54.400;18.566;2023-03-24T15:11:39;14.80;99.90
42365;DHT22;28498;54.400;18.566;2023-03-24T15:14:19;14.90;99.90
42365;DHT22;28498;54.400;18.566;2023-03-24T15:16:53;14.90;99.90
42365;DHT22;28498;54.400;18.566;2023-03-24T15:19:25;15.30;99.90
42365;DHT22;28498;54.400;18.566;2023-03-24T15:22:03;15.20;99.90
42365;DHT22;28498;54.400;18.566;2023-03-24T15:24:35;15.20;99.90
42365;DHT22;28498;54.400;18.566;2023-03-24T15:29:37;14.60;99.90
42365;DHT22;28498;54.400;18.566;2023-03-24T15:32:05;14.40;99.90
42365;DHT22;28498;54.400;18.566;2023-03-24T15:37:04;14.30;99.90
42365;DHT22;28498;54.400;18.566;2023-03-24T15:39:35;14.20;99.90
42365;DHT22;28498;54.400;18.566;2023-03-24T15:42:07;14.30;99.90
42365;DHT22;28498;54.400;18.566;2023-03-24T15:44:39;14.20;99.90
42365;DHT22;28498;54.400;18.566;2023-03-24T15:47:24;14.10;99.90
42365;DHT22;28498;54.400;18.566;2023-03-24T15:52:38;12.50;99.90
42365;DHT22;28498;54.400;18.566;2023-03-24T15:55:29;10.90;99.90
42365;DHT22;28498;54.400;18.566;2023-03-24T15:57:58;9.90;99.90
42365;DHT22;28498;54.400;18.566;2023-03-24T16:00:38;9.50;99.90
42365;DHT22;28498;54.400;18.566;2023-03-24T16:03:05;9.30;99.90
42365;DHT22;28498;54.400;18.566;2023-03-24T16:05:33;9.20;99.90
42365;DHT22;28498;54.400;18.566;2023-03-24T16:11:05;9.10;99.90
42365;DHT22;28498;54.400;18.566;2023-03-24T16:13:41;9.10;99.90
42365;DHT22;28498;54.400;18.566;2023-03-24T16:18:37;9.20;99.90
42365;DHT22;28498;54.400;18.566;2023-03-24T16:21:23;9.10;99.90
42365;DHT22;28498;54.400;18.566;2023-03-24T16:23:51;9.10;99.90
42365;DHT22;28498;54.400;18.566;2023-03-24T16:26:30;9.10;99.90
42365;DHT22;28498;54.400;18.566;2023-03-24T16:31:40;9.20;99.90
42365;DHT22;28498;54.400;18.566;2023-03-24T16:34:07;9.20;99.90
42365;DHT22;28498;54.400;18.566;2023-03-24T16:36:34;9.20;99.90
42365;DHT22;28498;54.400;18.566;2023-03-24T16:39:02;9.20;99.90
42365;DHT22;28498;54.400;18.566;2023-03-24T16:41:35;9.20;99.90
42365;DHT22;28498;54.400;18.566;2023-03-24T16:44:02;9.20;99.90
42365;DHT22;28498;54.400;18.566;2023-03-24T16:46:31;9.20;99.90
42365;DHT22;28498;54.400;18.566;2023-03-24T16:49:00;9.20;99.90
42365;DHT22;28498;54.400;18.566;2023-03-24T16:51:27;9.20;99.90
42365;DHT22;28498;54.400;18.566;2023-03-24T16:53:55;9.10;99.90
42365;DHT22;28498;54.400;18.566;2023-03-24T16:56:23;9.10;99.90
42365;DHT22;28498;54.400;18.566;2023-03-24T16:58:50;9.10;99.90
42365;DHT22;28498;54.400;18.566;2023-03-24T17:04:09;9.10;99.90
42365;DHT22;28498;54.400;18.566;2023-03-24T17:06:40;9.10;99.90
42365;DHT22;28498;54.400;18.566;2023-03-24T17:09:08;9.00;99.90
42365;DHT22;28498;54.400;18.566;2023-03-24T17:11:37;8.90;99.90
42365;DHT22;28498;54.400;18.566;2023-03-24T17:14:06;9.10;99.90
42365;DHT22;28498;54.400;18.566;2023-03-24T17:16:41;8.90;99.90
42365;DHT22;28498;54.400;18.566;2023-03-24T17:19:13;8.90;99.90
42365;DHT22;28498;54.400;18.566;2023-03-24T17:21:51;8.90;99.90
42365;DHT22;28498;54.400;18.566;2023-03-24T17:24:20;8.80;99.90
42365;DHT22;28498;54.400;18.566;2023-03-24T17:26:47;8.80;99.90
42365;DHT22;28498;54.400;18.566;2023-03-24T17:29:14;8.80;99.90
42365;DHT22;28498;54.400;18.566;2023-03-24T17:31:41;8.80;99.90
42365;DHT22;28498;54.400;18.566;2023-03-24T17:34:12;8.70;99.90
42365;DHT22;28498;54.400;18.566;2023-03-24T17:36:42;8.70;99.90
42365;DHT22;28498;54.400;18.566;2023-03-24T17:39:14;8.70;99.90
42365;DHT22;28498;54.400;18.566;2023-03-24T17:41:42;8.60;99.90
42365;DHT22;28498;54.400;18.566;2023-03-24T17:44:09;8.60;99.90
42365;DHT22;28498;54.400;18.566;2023-03-24T17:46:36;8.60;99.90
42365;DHT22;28498;54.400;18.566;2023-03-24T17:49:03;8.50;99.90
42365;DHT22;28498;54.400;18.566;2023-03-24T17:51:30;8.50;99.90
42365;DHT22;28498;54.400;18.566;2023-03-24T17:53:57;8.40;99.90
42365;DHT22;28498;54.400;18.566;2023-03-24T17:56:25;8.50;99.90
42365;DHT22;28498;54.400;18.566;2023-03-24T17:58:52;8.40;99.90
42365;DHT22;28498;54.400;18.566;2023-03-24T18:01:21;8.40;99.90
42365;DHT22;28498;54.400;18.566;2023-03-24T18:03:49;8.40;99.90
42365;DHT22;28498;54.400;18.566;2023-03-24T18:06:17;8.40;99.90
42365;DHT22;28498;54.400;18.566;2023-03-24T18:08:44;8.40;99.90
42365;DHT22;28498;54.400;18.566;2023-03-24T18:11:13;8.40;99.90
42365;DHT22;28498;54.400;18.566;2023-03-24T18:13:41;8.40;99.90
42365;DHT22;28498;54.400;18.566;2023-03-24T18:16:09;8.40;99.90
42365;DHT22;28498;54.400;18.566;2023-03-24T18:18:47;8.40;99.90
42365;DHT22;28498;54.400;18.566;2023-03-24T18:21:15;8.30;99.90
42365;DHT22;28498;54.400;18.566;2023-03-24T18:23:42;8.30;99.90
42365;DHT22;28498;54.400;18.566;2023-03-24T18:26:09;8.30;99.90
42365;DHT22;28498;54.400;18.566;2023-03-24T18:28:37;8.30;99.90
42365;DHT22;28498;54.400;18.566;2023-03-24T18:31:09;8.20;99.90
42365;DHT22;28498;54.400;18.566;2023-03-24T18:33:36;8.10;99.90
42365;DHT22;28498;54.400;18.566;2023-03-24T18:36:03;8.10;99.90
42365;DHT22;28498;54.400;18.566;2023-03-24T18:38:31;8.10;99.90
42365;DHT22;28498;54.400;18.566;2023-03-24T18:41:04;8.10;99.90
42365;DHT22;28498;54.400;18.566;2023-03-24T18:43:32;8.00;99.90
42365;DHT22;28498;54.400;18.566;2023-03-24T18:46:03;7.90;99.90
42365;DHT22;28498;54.400;18.566;2023-03-24T18:48:36;8.10;99.90
42365;DHT22;28498;54.400;18.566;2023-03-24T18:51:03;8.10;99.90
42365;DHT22;28498;54.400;18.566;2023-03-24T18:53:31;8.10;99.90
42365;DHT22;28498;54.400;18.566;2023-03-24T18:56:00;8.10;99.90